createdAt,value
2019-05-06T00:02:04.499Z,29.30
2019-05-06T00:04:35.737Z,29.30
2019-05-06T00:07:07.628Z,29.40
2019-05-06T00:09:39.267Z,29.40
2019-05-06T00:12:11.032Z,29.40
2019-05-06T00:14:43.670Z,29.50
2019-05-06T00:17:15.714Z,29.60
2019-05-06T00:19:47.551Z,29.70
2019-05-06T00:22:19.187Z,29.80
2019-05-06T00:24:54.592Z,30.00
2019-05-06T00:27:30.168Z,30.00
2019-05-06T00:30:04.329Z,30.10
2019-05-06T00:32:34.946Z,30.20
2019-05-06T00:35:07.532Z,30.40
2019-05-06T00:37:39.260Z,30.50
2019-05-06T00:40:14.034Z,30.60
2019-05-06T00:42:46.414Z,30.70
2019-05-06T00:45:17.858Z,30.80
2019-05-06T00:47:49.362Z,30.80
2019-05-06T00:50:20.852Z,30.80
2019-05-06T00:52:53.990Z,30.90
2019-05-06T00:55:25.359Z,31.00
2019-05-06T00:57:56.816Z,31.00
2019-05-06T01:00:29.989Z,31.10
2019-05-06T01:03:01.396Z,31.20
2019-05-06T01:05:33.725Z,31.30
2019-05-06T01:08:05.728Z,31.50
2019-05-06T01:10:37.706Z,31.60
2019-05-06T01:13:10.501Z,31.80
2019-05-06T01:15:56.160Z,32.00
2019-05-06T01:18:28.918Z,32.10
2019-05-06T01:21:14.330Z,32.30
2019-05-06T01:23:45.584Z,32.40
2019-05-06T01:26:17.446Z,32.60
2019-05-06T01:28:48.792Z,32.70
2019-05-06T01:31:20.252Z,32.80
2019-05-06T01:33:53.437Z,32.90
2019-05-06T01:36:25.070Z,33.10
2019-05-06T01:39:04.422Z,33.20
2019-05-06T01:41:44.672Z,33.30
2019-05-06T01:44:16.531Z,33.50
2019-05-06T01:46:47.979Z,33.70
2019-05-06T01:49:19.948Z,33.90
2019-05-06T01:51:51.600Z,33.90
2019-05-06T01:54:24.857Z,33.90
2019-05-06T01:56:56.832Z,33.90
2019-05-06T01:59:28.412Z,34.00
2019-05-06T02:02:01.151Z,34.10
2019-05-06T02:04:33.733Z,34.10
2019-05-06T02:07:05.752Z,34.20
2019-05-06T02:09:39.669Z,34.30
2019-05-06T02:12:13.662Z,34.30
2019-05-06T02:14:44.571Z,34.40
2019-05-06T02:17:16.482Z,34.50
2019-05-06T02:19:48.182Z,34.60
2019-05-06T02:22:24.297Z,34.60
2019-05-06T02:24:57.428Z,34.70
2019-05-06T02:27:29.396Z,34.80
2019-05-06T02:30:07.945Z,34.90
2019-05-06T02:32:47.713Z,35.00
2019-05-06T02:35:26.019Z,35.10
2019-05-06T02:37:56.199Z,35.30
2019-05-06T02:40:29.301Z,35.30
2019-05-06T02:43:03.318Z,35.30
2019-05-06T02:45:33.785Z,35.30
2019-05-06T02:48:16.157Z,35.30
2019-05-06T02:50:49.122Z,35.30
2019-05-06T02:53:23.571Z,35.30
2019-05-06T02:55:55.608Z,35.30
2019-05-06T02:58:27.275Z,35.40
2019-05-06T03:00:58.855Z,35.40
2019-05-06T03:03:33.354Z,35.50
2019-05-06T03:06:03.855Z,35.50
2019-05-06T03:08:36.354Z,35.60
2019-05-06T03:11:08.375Z,35.60
2019-05-06T03:13:43.447Z,35.50
2019-05-06T03:16:14.240Z,35.60
2019-05-06T03:18:45.929Z,35.60
2019-05-06T03:21:36.985Z,35.70
2019-05-06T03:24:23.459Z,35.70
2019-05-06T03:26:56.990Z,35.80
2019-05-06T03:29:27.494Z,35.90
2019-05-06T03:31:59.317Z,36.00
2019-05-06T03:34:52.671Z,36.00
2019-05-06T03:37:07.675Z,36.10
2019-05-06T03:39:37.085Z,36.20
2019-05-06T03:42:08.720Z,36.30
2019-05-06T03:44:43.595Z,36.40
2019-05-06T03:47:15.888Z,36.40
2019-05-06T03:49:50.136Z,36.50
2019-05-06T03:52:23.330Z,36.60
2019-05-06T03:54:54.425Z,36.60
2019-05-06T03:57:26.154Z,36.60
2019-05-06T03:59:57.737Z,36.40
2019-05-06T04:02:29.588Z,36.30
2019-05-06T04:05:03.572Z,36.10
2019-05-06T04:07:34.569Z,36.00
2019-05-06T04:10:07.404Z,36.00
2019-05-06T04:12:43.326Z,36.10
2019-05-06T04:15:14.174Z,36.20
2019-05-06T04:17:47.356Z,36.20
2019-05-06T04:20:26.644Z,36.30
2019-05-06T04:22:59.638Z,36.40
2019-05-06T04:25:48.791Z,36.60
2019-05-06T04:28:23.815Z,36.70
2019-05-06T04:30:55.014Z,36.90
2019-05-06T04:33:27.033Z,37.00
2019-05-06T04:35:58.829Z,37.10
2019-05-06T04:38:30.180Z,37.30
2019-05-06T04:41:02.887Z,37.30
2019-05-06T04:43:34.889Z,37.40
2019-05-06T04:46:06.661Z,37.30
2019-05-06T04:48:38.352Z,37.30
2019-05-06T04:51:09.660Z,37.20
2019-05-06T04:53:44.301Z,37.10
2019-05-06T04:56:16.274Z,37.00
2019-05-06T04:58:48.100Z,37.00
2019-05-06T05:01:19.593Z,36.90
2019-05-06T05:03:53.543Z,36.90
2019-05-06T05:06:24.490Z,37.00
2019-05-06T05:08:55.882Z,37.00
2019-05-06T05:11:33.245Z,37.20
2019-05-06T05:14:09.254Z,37.30
2019-05-06T05:16:42.288Z,37.60
2019-05-06T05:19:15.283Z,37.70
2019-05-06T05:21:46.968Z,37.80
2019-05-06T05:24:18.761Z,37.90
2019-05-06T05:26:52.290Z,37.90
2019-05-06T05:29:23.924Z,38.00
2019-05-06T05:31:55.884Z,38.00
2019-05-06T05:34:38.079Z,38.00
2019-05-06T05:37:02.799Z,38.00
2019-05-06T05:39:33.562Z,38.00
2019-05-06T05:42:06.677Z,38.00
2019-05-06T05:44:39.485Z,38.10
2019-05-06T05:47:12.370Z,38.10
2019-05-06T05:50:02.250Z,38.10
2019-05-06T05:52:33.228Z,38.00
2019-05-06T05:55:05.184Z,37.90
2019-05-06T05:57:37.017Z,37.90
2019-05-06T06:00:08.684Z,37.80
2019-05-06T06:02:43.441Z,37.90
2019-05-06T06:05:13.247Z,37.90
2019-05-06T06:07:45.094Z,38.00
2019-05-06T06:10:29.787Z,38.20
2019-05-06T06:13:02.143Z,38.40
2019-05-06T06:15:52.132Z,38.60
2019-05-06T06:18:33.220Z,38.80
2019-05-06T06:21:17.666Z,38.90
2019-05-06T06:23:41.971Z,39.00
2019-05-06T06:26:13.739Z,38.90
2019-05-06T06:28:45.232Z,38.90
2019-05-06T06:31:18.620Z,38.90
2019-05-06T06:33:52.980Z,38.90
2019-05-06T06:36:37.636Z,38.80
2019-05-06T06:39:12.429Z,38.70
2019-05-06T06:41:43.559Z,38.60
2019-05-06T06:44:16.409Z,38.60
2019-05-06T06:46:48.450Z,38.60
2019-05-06T06:49:21.716Z,38.60
2019-05-06T06:51:53.249Z,38.50
2019-05-06T06:54:24.957Z,38.40
2019-05-06T06:57:06.167Z,38.30
2019-05-06T06:59:32.168Z,38.20
2019-05-06T07:02:14.012Z,38.20
2019-05-06T07:04:47.048Z,38.10
2019-05-06T07:07:20.104Z,38.00
2019-05-06T07:09:53.276Z,37.90
2019-05-06T07:12:24.536Z,37.90
2019-05-06T07:15:02.459Z,37.80
2019-05-06T07:17:34.532Z,37.70
2019-05-06T07:20:17.130Z,37.70
2019-05-06T07:22:48.979Z,37.70
2019-05-06T07:25:22.641Z,37.60
2019-05-06T07:27:53.673Z,37.60
2019-05-06T07:30:26.416Z,37.60
2019-05-06T07:33:00.422Z,37.50
2019-05-06T07:35:39.451Z,37.40
2019-05-06T07:38:04.321Z,37.20
2019-05-06T07:40:36.257Z,37.10
2019-05-06T07:43:25.708Z,37.00
2019-05-06T07:45:58.624Z,37.00
2019-05-06T07:48:31.961Z,36.90
2019-05-06T07:51:03.330Z,36.90
2019-05-06T07:53:35.024Z,36.80
2019-05-06T07:56:06.572Z,36.70
2019-05-06T07:58:38.181Z,36.50
2019-05-06T08:01:09.945Z,36.20
2019-05-06T08:03:42.777Z,36.00
2019-05-06T08:06:14.768Z,35.90
2019-05-06T08:08:46.689Z,35.90
2019-05-06T08:11:18.391Z,35.90
2019-05-06T08:13:50.037Z,35.90
2019-05-06T08:16:22.650Z,35.90
2019-05-06T08:18:56.941Z,35.90
2019-05-06T08:21:38.672Z,35.90
2019-05-06T08:24:12.042Z,35.90
2019-05-06T08:26:43.713Z,35.90
2019-05-06T08:29:16.052Z,36.00
2019-05-06T08:31:47.826Z,36.10
2019-05-06T08:34:19.715Z,36.20
2019-05-06T08:36:53.378Z,36.20
2019-05-06T08:39:25.120Z,36.30
2019-05-06T08:41:56.816Z,36.30
2019-05-06T08:44:28.628Z,36.20
2019-05-06T08:47:02.436Z,36.10
2019-05-06T08:49:34.600Z,36.00
2019-05-06T08:52:13.480Z,36.00
2019-05-06T08:54:49.554Z,36.00
2019-05-06T08:57:22.750Z,35.90
2019-05-06T08:59:54.361Z,35.90
2019-05-06T09:02:26.249Z,35.90
2019-05-06T09:04:58.019Z,35.90
2019-05-06T09:07:31.883Z,35.80
2019-05-06T09:10:02.835Z,35.80
2019-05-06T09:12:34.313Z,35.80
2019-05-06T09:15:06.097Z,35.70
2019-05-06T09:17:37.641Z,35.70
2019-05-06T09:20:09.831Z,35.60
2019-05-06T09:22:42.943Z,35.40
2019-05-06T09:25:14.498Z,35.40
2019-05-06T09:27:50.052Z,35.30
2019-05-06T09:30:38.649Z,35.20
2019-05-06T09:33:10.442Z,35.20
2019-05-06T09:35:42.402Z,35.10
2019-05-06T09:38:13.813Z,35.00
2019-05-06T09:40:45.283Z,34.90
2019-05-06T09:43:16.954Z,34.80
2019-05-06T09:45:48.677Z,34.70
2019-05-06T09:48:22.437Z,34.60
2019-05-06T09:50:54.355Z,34.50
2019-05-06T09:53:30.404Z,34.40
2019-05-06T09:56:06.789Z,34.30
2019-05-06T09:58:42.943Z,34.20
2019-05-06T10:01:14.198Z,34.10
2019-05-06T10:03:45.973Z,34.00
2019-05-06T10:06:17.710Z,34.00
2019-05-06T10:08:49.619Z,34.00
2019-05-06T10:11:22.330Z,34.00
2019-05-06T10:13:54.198Z,34.00
2019-05-06T10:16:25.770Z,34.10
2019-05-06T10:18:57.532Z,34.10
2019-05-06T10:21:32.191Z,34.10
2019-05-06T10:24:02.537Z,34.10
2019-05-06T10:26:35.550Z,34.10
2019-05-06T10:29:08.995Z,34.20
2019-05-06T10:31:48.532Z,34.10
2019-05-06T10:34:22.097Z,33.80
2019-05-06T10:37:11.684Z,33.30
2019-05-06T10:39:29.772Z,33.00
2019-05-06T10:42:14.324Z,32.70
2019-05-06T10:44:54.054Z,32.60
2019-05-06T10:47:25.848Z,32.50
2019-05-06T10:49:57.549Z,32.50
2019-05-06T10:52:51.713Z,32.50
2019-05-06T10:55:23.317Z,32.40
2019-05-06T10:57:55.330Z,32.30
2019-05-06T11:00:27.064Z,32.40
2019-05-06T11:03:14.961Z,32.20
2019-05-06T11:05:44.467Z,32.20
2019-05-06T11:08:16.353Z,32.00
2019-05-06T11:10:48.182Z,31.90
2019-05-06T11:13:20.097Z,31.80
2019-05-06T11:15:55.076Z,31.70
2019-05-06T11:18:24.910Z,31.60
2019-05-06T11:20:56.661Z,31.40
2019-05-06T11:23:30.930Z,31.30
2019-05-06T11:26:03.079Z,31.30
2019-05-06T11:28:54.861Z,31.20
2019-05-06T11:31:33.944Z,31.10
2019-05-06T11:34:12.488Z,31.10
2019-05-06T11:36:47.665Z,31.10
2019-05-06T11:39:19.521Z,31.10
2019-05-06T11:42:14.416Z,31.10
2019-05-06T11:44:24.484Z,31.20
2019-05-06T11:46:56.142Z,31.20
2019-05-06T11:49:27.616Z,31.20
2019-05-06T11:51:59.391Z,31.20
2019-05-06T11:54:33.578Z,31.20
2019-05-06T11:57:04.853Z,31.20
2019-05-06T11:59:36.362Z,31.20
2019-05-06T12:02:09.178Z,31.20
2019-05-06T12:04:41.950Z,31.30
2019-05-06T12:07:15.873Z,31.30
2019-05-06T12:09:46.721Z,31.40
2019-05-06T12:12:18.486Z,31.40
2019-05-06T12:14:52.474Z,31.50
2019-05-06T12:17:23.420Z,31.50
2019-05-06T12:19:54.999Z,31.50
2019-05-06T12:22:27.949Z,31.50
2019-05-06T12:24:59.980Z,31.50
2019-05-06T12:27:47.402Z,31.50
2019-05-06T12:30:22.983Z,31.50
2019-05-06T12:33:03.215Z,31.40
2019-05-06T12:35:36.198Z,31.40
2019-05-06T12:38:26.537Z,31.30
2019-05-06T12:40:47.945Z,31.30
2019-05-06T12:43:27.699Z,31.30
2019-05-06T12:46:06.582Z,31.30
2019-05-06T12:48:44.030Z,31.20
2019-05-06T12:51:15.867Z,31.30
2019-05-06T12:53:47.571Z,31.30
2019-05-06T12:56:19.210Z,31.30
2019-05-06T12:58:52.599Z,31.30
2019-05-06T13:01:24.034Z,31.30
2019-05-06T13:03:55.747Z,31.20
2019-05-06T13:06:27.285Z,31.20
2019-05-06T13:09:04.162Z,31.20
2019-05-06T13:11:32.092Z,31.20
2019-05-06T13:14:04.327Z,31.20
2019-05-06T13:16:35.746Z,31.20
2019-05-06T13:19:07.694Z,31.20
2019-05-06T13:21:39.561Z,31.20
2019-05-06T13:24:12.137Z,31.10
2019-05-06T13:26:44.216Z,31.10
2019-05-06T13:29:17.515Z,31.00
2019-05-06T13:31:49.156Z,30.90
2019-05-06T13:34:23.481Z,30.90
2019-05-06T13:36:54.532Z,30.80
2019-05-06T13:39:26.330Z,30.80
2019-05-06T13:41:58.072Z,30.80
2019-05-06T13:44:31.888Z,30.80
2019-05-06T13:47:03.102Z,30.90
2019-05-06T13:49:36.263Z,30.90
2019-05-06T13:52:08.977Z,30.80
2019-05-06T13:54:42.175Z,30.80
2019-05-06T13:57:14.150Z,30.80
2019-05-06T13:59:45.876Z,30.70
2019-05-06T14:02:21.669Z,30.60
2019-05-06T14:04:53.642Z,30.50
2019-05-06T14:07:25.406Z,30.40
2019-05-06T14:09:57.301Z,30.40
2019-05-06T14:12:28.821Z,30.40
2019-05-06T14:15:03.995Z,30.40
2019-05-06T14:17:33.845Z,30.40
2019-05-06T14:20:05.477Z,30.50
2019-05-06T14:22:37.194Z,30.50
2019-05-06T14:25:27.581Z,30.50
2019-05-06T14:28:03.222Z,30.60
2019-05-06T14:30:36.526Z,30.60
2019-05-06T14:33:08.331Z,30.60
2019-05-06T14:35:40.240Z,30.60
2019-05-06T14:38:13.622Z,30.70
2019-05-06T14:41:04.401Z,30.70
2019-05-06T14:43:35.369Z,30.70
2019-05-06T14:46:07.333Z,30.70
2019-05-06T14:48:39.121Z,30.70
2019-05-06T14:51:12.892Z,30.70
2019-05-06T14:53:44.027Z,30.70
2019-05-06T14:56:17.167Z,30.60
2019-05-06T14:59:07.921Z,30.60
2019-05-06T15:01:40.194Z,30.70
2019-05-06T15:04:12.539Z,30.70
2019-05-06T15:06:44.574Z,30.60
2019-05-06T15:09:15.953Z,30.60
2019-05-06T15:11:47.809Z,30.60
2019-05-06T15:14:19.636Z,30.60
2019-05-06T15:16:52.769Z,30.50
2019-05-06T15:19:24.630Z,30.50
2019-05-06T15:21:56.572Z,30.40
2019-05-06T15:24:28.213Z,30.40
2019-05-06T15:26:59.828Z,30.40
2019-05-06T15:29:31.785Z,30.40
2019-05-06T15:32:12.852Z,30.30
2019-05-06T15:34:56.900Z,30.30
2019-05-06T15:37:29.934Z,30.40
2019-05-06T15:40:03.053Z,30.30
2019-05-06T15:42:34.489Z,30.30
2019-05-06T15:45:07.520Z,30.30
2019-05-06T15:47:39.399Z,30.20
2019-05-06T15:50:12.737Z,30.20
2019-05-06T15:52:43.890Z,30.10
2019-05-06T15:55:15.553Z,30.00
2019-05-06T15:57:47.164Z,29.90
2019-05-06T16:00:22.311Z,29.80
2019-05-06T16:02:53.442Z,29.70
2019-05-06T16:05:26.435Z,29.60
2019-05-06T16:07:58.111Z,29.50
2019-05-06T16:10:29.606Z,29.50
2019-05-06T16:13:02.369Z,29.50
2019-05-06T16:15:34.328Z,29.50
2019-05-06T16:18:06.026Z,29.60
2019-05-06T16:20:37.812Z,29.50
2019-05-06T16:23:13.451Z,29.50
2019-05-06T16:25:45.028Z,29.50
2019-05-06T16:28:16.794Z,29.50
2019-05-06T16:30:49.492Z,29.50
2019-05-06T16:33:22.057Z,29.40
2019-05-06T16:35:54.297Z,29.40
2019-05-06T16:38:25.927Z,29.40
2019-05-06T16:41:09.389Z,29.40
2019-05-06T16:43:34.062Z,29.40
2019-05-06T16:46:03.690Z,29.50
2019-05-06T16:48:35.544Z,29.40
2019-05-06T16:51:07.240Z,29.40
2019-05-06T16:53:38.982Z,29.40
2019-05-06T16:56:23.939Z,29.40
2019-05-06T16:58:59.716Z,29.30
2019-05-06T17:01:34.068Z,29.30
2019-05-06T17:04:08.090Z,29.30
2019-05-06T17:06:43.043Z,29.30
2019-05-06T17:09:20.760Z,29.30
2019-05-06T17:11:47.631Z,29.20
2019-05-06T17:14:19.621Z,29.20
2019-05-06T17:16:52.700Z,29.30
2019-05-06T17:19:24.388Z,29.30
2019-05-06T17:21:56.221Z,29.30
2019-05-06T17:24:28.096Z,29.40
2019-05-06T17:26:59.314Z,29.40
2019-05-06T17:29:44.857Z,29.40
2019-05-06T17:32:28.744Z,29.40
2019-05-06T17:35:04.878Z,29.30
2019-05-06T17:37:56.268Z,29.30
2019-05-06T17:40:28.355Z,29.40
2019-05-06T17:43:02.401Z,29.40
2019-05-06T17:45:59.397Z,29.50
2019-05-06T17:48:27.940Z,29.50
2019-05-06T17:51:13.936Z,29.60
2019-05-06T17:53:52.109Z,29.60
2019-05-06T17:56:23.130Z,29.60
2019-05-06T17:58:54.680Z,29.60
2019-05-06T18:01:27.982Z,29.70
2019-05-06T18:04:02.089Z,29.70
2019-05-06T18:06:33.177Z,29.70
2019-05-06T18:09:05.145Z,29.70
2019-05-06T18:11:36.896Z,29.70
2019-05-06T18:14:08.627Z,29.70
2019-05-06T18:16:42.561Z,29.70
2019-05-06T18:19:13.164Z,29.80
2019-05-06T18:21:44.574Z,29.80
2019-05-06T18:24:16.309Z,29.80
2019-05-06T18:26:48.074Z,29.80
2019-05-06T18:29:21.624Z,29.90
2019-05-06T18:31:52.816Z,29.90
2019-05-06T18:34:24.686Z,29.90
2019-05-06T18:36:56.137Z,29.90
2019-05-06T18:39:27.646Z,29.90
2019-05-06T18:42:14.960Z,29.90
2019-05-06T18:44:33.220Z,30.00
2019-05-06T18:47:04.892Z,30.00
2019-05-06T18:49:36.542Z,30.00
2019-05-06T18:52:08.317Z,30.00
2019-05-06T18:54:42.727Z,30.00
2019-05-06T18:57:13.207Z,30.00
2019-05-06T18:59:45.126Z,30.00
2019-05-06T19:02:16.615Z,30.00
2019-05-06T19:04:52.136Z,30.00
2019-05-06T19:07:23.070Z,30.00
2019-05-06T19:09:56.207Z,29.90
2019-05-06T19:12:32.614Z,29.90
2019-05-06T19:15:03.126Z,29.80
2019-05-06T19:17:33.814Z,29.70
2019-05-06T19:20:05.892Z,29.50
2019-05-06T19:22:37.577Z,29.40
2019-05-06T19:25:12.396Z,29.30
2019-05-06T19:27:42.709Z,29.20
2019-05-06T19:30:14.865Z,29.20
2019-05-06T19:32:46.652Z,29.10
2019-05-06T19:35:18.906Z,29.00
2019-05-06T19:37:50.771Z,29.00
2019-05-06T19:40:22.927Z,29.00
2019-05-06T19:42:54.806Z,29.00
2019-05-06T19:45:29.142Z,29.00
2019-05-06T19:47:59.562Z,28.90
2019-05-06T19:50:32.821Z,28.90
2019-05-06T19:53:04.210Z,28.80
2019-05-06T19:55:35.870Z,28.70
2019-05-06T19:58:07.827Z,28.70
2019-05-06T20:00:41.917Z,28.80
2019-05-06T20:03:12.807Z,28.80
2019-05-06T20:05:45.987Z,28.70
2019-05-06T20:08:19.128Z,28.70
2019-05-06T20:11:08.854Z,28.70
2019-05-06T20:13:40.624Z,28.70
2019-05-06T20:16:12.506Z,28.70
2019-05-06T20:18:44.394Z,28.70
2019-05-06T20:21:16.117Z,28.80
2019-05-06T20:23:48.056Z,28.90
2019-05-06T20:26:21.441Z,28.80
2019-05-06T20:28:53.330Z,28.80
2019-05-06T20:31:24.806Z,28.70
2019-05-06T20:33:56.253Z,28.70
2019-05-06T20:36:28.534Z,28.60
2019-05-06T20:39:02.344Z,28.60
2019-05-06T20:41:33.015Z,28.50
2019-05-06T20:44:04.919Z,28.40
2019-05-06T20:46:36.564Z,28.40
2019-05-06T20:49:08.224Z,28.40
2019-05-06T20:51:42.282Z,28.40
2019-05-06T20:54:13.113Z,28.30
2019-05-06T20:56:44.990Z,28.30
2019-05-06T20:59:16.645Z,28.30
2019-05-06T21:01:48.412Z,28.30
2019-05-06T21:04:20.034Z,28.30
2019-05-06T21:06:51.898Z,28.20
2019-05-06T21:09:23.540Z,28.20
2019-05-06T21:11:55.354Z,28.30
2019-05-06T21:14:26.900Z,28.30
2019-05-06T21:16:58.510Z,28.30
2019-05-06T21:19:30.357Z,28.30
2019-05-06T21:22:02.290Z,28.20
2019-05-06T21:24:36.071Z,28.30
2019-05-06T21:27:07.212Z,28.30
2019-05-06T21:29:38.892Z,28.30
2019-05-06T21:32:10.805Z,28.30
2019-05-06T21:34:43.218Z,28.30
2019-05-06T21:37:15.238Z,28.40
2019-05-06T21:39:46.870Z,28.30
2019-05-06T21:42:18.741Z,28.40
2019-05-06T21:44:52.147Z,28.40
2019-05-06T21:47:23.766Z,28.40
2019-05-06T21:49:55.408Z,28.30
2019-05-06T21:52:36.216Z,28.30
2019-05-06T21:55:02.392Z,28.30
2019-05-06T21:57:33.587Z,28.30
2019-05-06T22:00:06.723Z,28.40
2019-05-06T22:02:38.449Z,28.40
2019-05-06T22:05:10.441Z,28.40
2019-05-06T22:07:43.321Z,28.40
2019-05-06T22:10:15.441Z,28.30
2019-05-06T22:12:47.330Z,28.30
2019-05-06T22:15:18.866Z,28.20
2019-05-06T22:17:54.278Z,28.30
2019-05-06T22:20:23.897Z,28.30
2019-05-06T22:22:55.652Z,28.30
2019-05-06T22:25:27.436Z,28.30
2019-05-06T22:27:59.145Z,28.30
2019-05-06T22:30:32.804Z,28.30
2019-05-06T22:33:03.852Z,28.30
2019-05-06T22:35:35.537Z,28.40
2019-05-06T22:38:07.544Z,28.30
2019-05-06T22:40:39.195Z,28.30
2019-05-06T22:43:12.320Z,28.30
2019-05-06T22:45:43.898Z,28.30
2019-05-06T22:48:15.993Z,28.20
2019-05-06T22:50:47.716Z,28.20
2019-05-06T22:53:19.393Z,28.20
2019-05-06T22:55:51.128Z,28.20
2019-05-06T22:58:22.880Z,28.20
2019-05-06T23:00:55.953Z,28.30
2019-05-06T23:03:34.472Z,28.30
2019-05-06T23:06:05.308Z,28.30
2019-05-06T23:08:37.018Z,28.30
2019-05-06T23:11:08.755Z,28.30
2019-05-06T23:13:41.891Z,28.30
2019-05-06T23:16:13.532Z,28.30
2019-05-06T23:18:45.266Z,28.30
2019-05-06T23:21:17.004Z,28.30
2019-05-06T23:23:48.717Z,28.30
2019-05-06T23:26:22.776Z,28.20
2019-05-06T23:28:54.595Z,28.30
2019-05-06T23:31:26.384Z,28.20
2019-05-06T23:33:58.209Z,28.20
2019-05-06T23:36:30.983Z,28.20
2019-05-06T23:39:42.852Z,28.20
2019-05-06T23:42:52.595Z,28.10
2019-05-06T23:46:02.263Z,28.10
2019-05-06T23:49:09.075Z,28.20
2019-05-06T23:52:16.601Z,28.20
2019-05-06T23:55:24.175Z,28.30
2019-05-06T23:57:54.216Z,28.30
